Time;durP1;ratioP1;P1;durP2;ratioP2;P2;SDS_P1;SDS_P2;PMS_P1;PMS_P2;Temp;Humidity;BMP_temperature;BMP_pressure;BME280_temperature;BME280_humidity;BME280_pressure;Samples;Min_cycle;Max_cycle;Signal;HPM_P1;HPM_P2
2022/08/10 00:01:22;;;;;;;0.70;0.70;;;22.90;99.90;;;;;;5067184;28;20614;-80
2022/08/10 00:03:48;;;;;;;1.27;1.20;;;22.90;99.90;;;;;;5065024;28;20295;-79
2022/08/10 00:06:13;;;;;;;0.60;0.60;;;22.80;99.90;;;;;;5062267;28;20181;-79
2022/08/10 00:08:40;;;;;;;0.50;0.50;;;22.70;99.90;;;;;;5064623;28;20551;-79
2022/08/10 00:11:06;;;;;;;0.77;0.77;;;22.70;99.90;;;;;;5063287;28;20217;-79
2022/08/10 00:13:31;;;;;;;0.90;0.90;;;22.80;99.90;;;;;;5065891;28;20273;-79
2022/08/10 00:15:57;;;;;;;1.07;0.87;;;22.70;99.90;;;;;;5066807;28;20829;-79
2022/08/10 00:18:23;;;;;;;4.30;0.83;;;22.70;99.90;;;;;;5068377;28;20185;-79
2022/08/10 00:20:48;;;;;;;0.70;0.70;;;22.70;99.90;;;;;;5063316;28;20280;-79
2022/08/10 00:23:14;;;;;;;0.80;0.80;;;22.70;99.90;;;;;;5055463;28;20288;-79
2022/08/10 00:25:39;;;;;;;0.77;0.77;;;22.60;99.90;;;;;;5070692;28;20619;-79
2022/08/10 00:28:05;;;;;;;0.80;0.80;;;22.70;99.90;;;;;;5061492;28;20273;-79
2022/08/10 00:30:30;;;;;;;0.50;0.50;;;22.60;99.90;;;;;;5060870;28;20322;-79
2022/08/10 00:32:56;;;;;;;0.70;0.70;;;22.60;99.90;;;;;;5061730;28;20259;-80
2022/08/10 00:35:21;;;;;;;1.40;0.57;;;22.60;99.90;;;;;;5066262;28;20181;-79
2022/08/10 00:37:47;;;;;;;0.50;0.50;;;22.50;99.90;;;;;;5086276;28;20193;-79
2022/08/10 00:40:12;;;;;;;1.67;0.83;;;22.50;99.90;;;;;;5058152;28;20185;-79
2022/08/10 00:42:38;;;;;;;0.50;0.50;;;22.50;99.90;;;;;;5067066;28;20199;-79
2022/08/10 00:45:04;;;;;;;0.50;0.50;;;22.40;99.90;;;;;;5065709;28;20215;-80
2022/08/10 00:47:29;;;;;;;0.90;0.80;;;22.40;99.90;;;;;;5062984;28;20193;-79
2022/08/10 00:49:55;;;;;;;0.60;0.50;;;22.30;99.90;;;;;;5060366;28;20197;-79
2022/08/10 00:52:23;;;;;;;0.50;0.50;;;22.30;99.90;;;;;;5057148;28;20181;-79
2022/08/10 00:54:49;;;;;;;0.40;0.40;;;22.30;99.90;;;;;;5059740;28;20201;-80
2022/08/10 00:57:15;;;;;;;0.83;0.70;;;22.30;99.90;;;;;;5068666;28;20211;-79
2022/08/10 00:59:42;;;;;;;0.83;0.83;;;22.30;99.90;;;;;;5065272;28;20647;-79
2022/08/10 01:02:07;;;;;;;0.73;0.60;;;22.20;99.90;;;;;;5085230;28;20177;-80
2022/08/10 01:04:33;;;;;;;0.53;0.53;;;22.10;99.90;;;;;;5052166;28;20212;-80
2022/08/10 01:07:29;;;;;;;0.70;0.70;;;22.10;99.90;;;;;;5068828;28;20193;-79
2022/08/10 01:10:19;;;;;;;0.37;0.37;;;22.20;99.90;;;;;;5061570;28;20221;-80
2022/08/10 01:13:05;;;;;;;0.80;0.80;;;22.10;99.90;;;;;;5065190;28;20270;-80
2022/08/10 01:15:41;;;;;;;1.27;1.23;;;22.10;99.90;;;;;;5054266;28;20663;-80
2022/08/10 01:18:20;;;;;;;0.70;0.70;;;22.10;99.90;;;;;;5066367;28;20185;-80
2022/08/10 01:21:07;;;;;;;0.60;0.60;;;22.10;99.90;;;;;;5065410;28;20258;-80
2022/08/10 01:23:39;;;;;;;1.50;1.40;;;22.10;99.90;;;;;;5079616;28;20305;-80
2022/08/10 01:26:23;;;;;;;0.50;0.50;;;22.00;99.90;;;;;;5062098;28;20203;-80
2022/08/10 01:28:57;;;;;;;0.40;0.40;;;22.00;99.90;;;;;;5064282;28;20211;-80
2022/08/10 01:31:29;;;;;;;0.50;0.50;;;22.00;99.90;;;;;;5079580;28;20717;-79
2022/08/10 01:34:01;;;;;;;0.40;0.40;;;21.90;99.90;;;;;;5087703;28;20223;-80
2022/08/10 01:36:30;;;;;;;0.30;0.30;;;22.00;99.90;;;;;;5083857;28;20185;-80
2022/08/10 01:39:00;;;;;;;0.63;0.40;;;22.00;99.90;;;;;;5088267;28;20563;-80
2022/08/10 01:41:30;;;;;;;1.43;1.33;;;21.90;99.90;;;;;;5072440;28;20177;-79
2022/08/10 01:44:04;;;;;;;0.50;0.50;;;21.90;99.90;;;;;;5071147;28;20213;-80
2022/08/10 01:46:32;;;;;;;0.83;0.83;;;21.80;99.90;;;;;;5060810;28;20209;-79
2022/08/10 01:49:01;;;;;;;0.50;0.50;;;21.80;99.90;;;;;;5063886;28;20295;-79
2022/08/10 01:51:55;;;;;;;1.43;0.80;;;21.80;99.90;;;;;;5072662;28;20189;-79
2022/08/10 01:54:24;;;;;;;0.50;0.50;;;21.80;99.90;;;;;;5060065;28;20242;-80
2022/08/10 01:56:53;;;;;;;0.47;0.47;;;21.80;99.90;;;;;;5071043;28;20264;-80
2022/08/10 01:59:37;;;;;;;0.47;0.43;;;21.80;99.90;;;;;;5081893;28;20260;-80
2022/08/10 02:02:11;;;;;;;0.50;0.40;;;21.70;99.90;;;;;;5071243;28;20720;-80
2022/08/10 02:04:43;;;;;;;0.97;0.97;;;21.70;99.90;;;;;;5070002;28;20295;-80
2022/08/10 02:07:13;;;;;;;0.30;0.30;;;21.80;99.90;;;;;;5068248;28;20262;-80
2022/08/10 02:09:43;;;;;;;0.60;0.60;;;21.70;99.90;;;;;;5065733;28;20199;-80
2022/08/10 02:12:12;;;;;;;0.63;0.60;;;21.60;99.90;;;;;;5065801;28;20189;-80
2022/08/10 02:14:46;;;;;;;0.43;0.43;;;21.60;99.90;;;;;;5066686;28;20219;-80
2022/08/10 02:17:34;;;;;;;0.50;0.50;;;21.60;99.90;;;;;;5069855;28;20666;-80
2022/08/10 02:20:07;;;;;;;0.50;0.50;;;21.60;99.90;;;;;;5067062;28;20314;-80
2022/08/10 02:22:34;;;;;;;2.73;0.40;;;21.60;99.90;;;;;;5070642;28;20193;-79
2022/08/10 02:25:01;;;;;;;0.40;0.40;;;21.70;99.90;;;;;;5069750;28;20265;-81
2022/08/10 02:27:29;;;;;;;0.40;0.40;;;21.60;99.90;;;;;;5068252;28;20213;-80
2022/08/10 02:29:56;;;;;;;0.23;0.23;;;21.70;99.90;;;;;;5070469;28;20176;-80
2022/08/10 02:32:24;;;;;;;0.30;0.30;;;21.70;99.90;;;;;;5088298;28;20189;-79
2022/08/10 02:34:51;;;;;;;0.50;0.50;;;21.70;99.90;;;;;;5074938;28;20222;-80
2022/08/10 02:37:23;;;;;;;0.70;0.60;;;21.60;99.90;;;;;;5090096;28;20275;-79
2022/08/10 02:39:49;;;;;;;0.50;0.50;;;21.60;99.90;;;;;;5068271;28;20189;-80
2022/08/10 02:42:58;;;;;;;0.20;0.20;;;21.60;99.90;;;;;;5070759;28;20725;-80
2022/08/10 02:45:46;;;;;;;0.30;0.30;;;21.60;99.90;;;;;;5033158;28;20205;-79
2022/08/10 02:48:22;;;;;;;0.60;0.60;;;21.60;99.90;;;;;;5062720;28;20601;-79
2022/08/10 02:50:56;;;;;;;0.77;0.50;;;21.50;99.90;;;;;;5062881;28;20181;-80
2022/08/10 02:53:38;;;;;;;1.00;0.73;;;21.40;99.90;;;;;;5062138;28;20240;-79
2022/08/10 02:56:18;;;;;;;0.40;0.40;;;21.30;99.90;;;;;;5066791;28;20177;-80
2022/08/10 02:58:52;;;;;;;1.80;1.37;;;21.20;99.90;;;;;;5064261;28;20242;-80
2022/08/10 03:01:21;;;;;;;0.73;0.73;;;21.10;99.90;;;;;;5084827;28;20545;-80
2022/08/10 03:03:59;;;;;;;0.40;0.40;;;21.00;99.90;;;;;;5087929;28;20220;-80
2022/08/10 03:06:33;;;;;;;0.70;0.60;;;20.90;99.90;;;;;;5061639;28;20201;-79
2022/08/10 03:09:00;;;;;;;0.70;0.70;;;20.90;99.90;;;;;;5088141;28;20192;-79
2022/08/10 03:11:29;;;;;;;0.90;0.90;;;20.80;99.90;;;;;;5055546;28;20288;-79
2022/08/10 03:13:57;;;;;;;1.30;0.77;;;20.80;99.90;;;;;;5072203;28;20213;-79
2022/08/10 03:16:24;;;;;;;0.87;0.73;;;20.70;99.90;;;;;;5062219;28;20189;-79
2022/08/10 03:18:51;;;;;;;0.43;0.40;;;20.80;99.90;;;;;;5061900;28;20207;-80
2022/08/10 03:21:19;;;;;;;0.33;0.33;;;20.80;99.90;;;;;;5064162;28;20177;-79
2022/08/10 03:23:45;;;;;;;6.30;1.47;;;20.80;99.90;;;;;;5064890;28;20213;-80
2022/08/10 03:26:12;;;;;;;0.53;0.47;;;20.80;99.90;;;;;;5063716;28;20206;-79
2022/08/10 03:28:38;;;;;;;0.50;0.50;;;20.70;99.90;;;;;;5060524;28;20185;-80
2022/08/10 03:31:04;;;;;;;1.87;0.53;;;20.70;99.90;;;;;;5081438;28;20544;-79
2022/08/10 03:33:34;;;;;;;0.57;0.57;;;20.70;99.90;;;;;;5065419;28;20228;-79
2022/08/10 03:36:00;;;;;;;0.90;0.53;;;20.60;99.90;;;;;;5071305;28;20553;-79
2022/08/10 03:38:25;;;;;;;0.60;0.60;;;20.60;99.90;;;;;;5084609;28;20188;-80
2022/08/10 03:40:53;;;;;;;0.50;0.50;;;20.60;99.90;;;;;;5069896;28;20185;-80
2022/08/10 03:43:21;;;;;;;0.40;0.40;;;20.60;99.90;;;;;;5083822;28;20205;-79
2022/08/10 03:45:56;;;;;;;1.27;0.70;;;20.50;99.90;;;;;;5058518;28;20270;-79
2022/08/10 03:48:23;;;;;;;1.00;1.00;;;20.50;99.90;;;;;;5087028;28;20590;-80
2022/08/10 03:50:50;;;;;;;0.87;0.60;;;20.50;99.90;;;;;;5065077;28;20186;-80
2022/08/10 03:53:16;;;;;;;0.60;0.60;;;20.50;99.90;;;;;;5067355;28;20219;-80
2022/08/10 03:55:43;;;;;;;0.67;0.67;;;20.50;99.90;;;;;;5055681;28;20181;-79
2022/08/10 03:58:09;;;;;;;0.57;0.57;;;20.60;99.90;;;;;;5058592;28;20181;-80
2022/08/10 04:00:36;;;;;;;0.50;0.50;;;20.50;99.90;;;;;;5063727;28;20185;-79
2022/08/10 04:03:05;;;;;;;0.40;0.40;;;20.50;99.90;;;;;;5062870;28;20189;-79
2022/08/10 04:05:32;;;;;;;0.50;0.50;;;20.50;99.90;;;;;;5066012;28;20232;-80
2022/08/10 04:08:02;;;;;;;0.67;0.40;;;20.60;99.90;;;;;;5061149;28;20190;-80
2022/08/10 04:10:28;;;;;;;1.40;1.13;;;20.70;99.90;;;;;;5060963;28;20182;-79
2022/08/10 04:12:54;;;;;;;0.23;0.23;;;20.70;99.90;;;;;;5057233;28;20214;-79
2022/08/10 04:15:20;;;;;;;0.80;0.80;;;20.80;99.90;;;;;;5060301;28;20788;-80
2022/08/10 04:17:45;;;;;;;0.40;0.40;;;20.80;99.90;;;;;;5065393;28;20188;-80
2022/08/10 04:20:30;;;;;;;0.70;0.70;;;20.80;99.90;;;;;;5062834;28;20272;-80
2022/08/10 04:22:58;;;;;;;1.17;0.77;;;20.90;99.90;;;;;;5060342;28;20273;-79
2022/08/10 04:25:24;;;;;;;0.57;0.53;;;21.00;99.90;;;;;;5061015;28;20263;-80
2022/08/10 04:27:51;;;;;;;0.43;0.40;;;21.00;99.90;;;;;;5064505;28;20192;-80
2022/08/10 04:30:16;;;;;;;0.40;0.40;;;21.10;99.90;;;;;;5067523;28;20184;-79
2022/08/10 04:32:44;;;;;;;0.50;0.50;;;21.10;99.90;;;;;;5064485;28;20307;-79
2022/08/10 04:35:12;;;;;;;0.30;0.30;;;21.10;99.90;;;;;;5068247;28;20200;-79
2022/08/10 04:37:39;;;;;;;1.40;0.90;;;21.00;99.90;;;;;;5057657;28;20246;-80
2022/08/10 04:40:05;;;;;;;0.30;0.30;;;21.00;99.90;;;;;;5069309;28;20223;-79
2022/08/10 04:42:31;;;;;;;0.60;0.60;;;21.10;99.90;;;;;;5065582;28;20256;-79
2022/08/10 04:44:56;;;;;;;0.63;0.63;;;21.10;99.90;;;;;;5061490;28;20217;-79
2022/08/10 04:47:22;;;;;;;1.67;1.57;;;21.10;99.90;;;;;;5068444;28;20193;-79
2022/08/10 04:49:47;;;;;;;0.40;0.40;;;21.10;99.90;;;;;;5067826;28;20258;-80
2022/08/10 04:52:13;;;;;;;0.40;0.40;;;21.10;99.90;;;;;;5086559;28;20591;-80
2022/08/10 04:54:39;;;;;;;0.50;0.50;;;21.20;99.90;;;;;;5066941;28;20244;-80
2022/08/10 04:57:04;;;;;;;0.27;0.27;;;21.20;99.90;;;;;;5071019;28;20269;-79
2022/08/10 04:59:30;;;;;;;0.47;0.47;;;21.30;99.90;;;;;;5067702;28;20208;-80
2022/08/10 05:01:55;;;;;;;0.30;0.30;;;21.40;99.90;;;;;;5060684;28;20177;-80
2022/08/10 05:04:21;;;;;;;0.50;0.50;;;21.50;99.90;;;;;;5053366;28;20233;-80
2022/08/10 05:06:46;;;;;;;0.50;0.50;;;21.50;99.90;;;;;;5073096;28;20199;-80
2022/08/10 05:09:12;;;;;;;0.50;0.50;;;21.60;99.90;;;;;;5070818;28;20189;-80
2022/08/10 05:11:37;;;;;;;0.33;0.33;;;21.70;99.90;;;;;;5070248;28;20211;-79
2022/08/10 05:14:03;;;;;;;0.63;0.63;;;21.70;99.90;;;;;;5074265;28;20223;-79
2022/08/10 05:16:28;;;;;;;0.40;0.40;;;21.80;99.90;;;;;;5069846;28;20190;-80
2022/08/10 05:18:54;;;;;;;1.07;0.33;;;21.90;99.90;;;;;;5088967;28;20694;-81
2022/08/10 05:21:20;;;;;;;0.87;0.47;;;21.90;99.90;;;;;;5065312;28;20209;-80
2022/08/10 05:23:45;;;;;;;0.60;0.60;;;22.10;99.90;;;;;;5082751;28;20678;-79
2022/08/10 05:26:11;;;;;;;0.83;0.57;;;22.20;99.90;;;;;;5071780;28;20749;-80
2022/08/10 05:28:36;;;;;;;0.37;0.37;;;22.20;99.90;;;;;;5072926;28;20192;-79
2022/08/10 05:31:02;;;;;;;0.73;0.47;;;22.20;99.90;;;;;;5072339;28;20189;-79
2022/08/10 05:33:27;;;;;;;0.83;0.57;;;22.00;99.90;;;;;;5072983;28;20208;-79
2022/08/10 05:35:53;;;;;;;0.50;0.50;;;22.00;99.90;;;;;;5074554;28;20188;-79
2022/08/10 05:38:21;;;;;;;0.70;0.67;;;22.00;99.90;;;;;;5073123;28;20209;-78
2022/08/10 05:40:48;;;;;;;0.50;0.50;;;22.00;99.90;;;;;;5069434;28;20185;-79
2022/08/10 05:43:19;;;;;;;0.73;0.57;;;22.20;99.90;;;;;;5070628;28;20212;-78
2022/08/10 05:45:46;;;;;;;0.43;0.43;;;22.20;99.90;;;;;;5071711;28;20177;-78
2022/08/10 05:48:12;;;;;;;0.60;0.50;;;22.30;99.90;;;;;;5069799;28;20185;-79
2022/08/10 05:50:37;;;;;;;0.53;0.53;;;22.40;99.90;;;;;;5070011;28;20681;-79
2022/08/10 05:53:03;;;;;;;1.23;0.60;;;22.40;99.90;;;;;;5073501;28;20208;-79
2022/08/10 05:55:30;;;;;;;0.43;0.43;;;22.60;99.90;;;;;;5064692;28;20711;-79
2022/08/10 05:57:57;;;;;;;1.27;0.60;;;22.70;99.90;;;;;;5065842;28;20184;-78
2022/08/10 06:00:24;;;;;;;0.97;0.73;;;22.80;99.90;;;;;;5083282;28;20184;-79
2022/08/10 06:02:57;;;;;;;0.33;0.33;;;22.90;99.90;;;;;;5078756;28;20185;-78
2022/08/10 06:05:26;;;;;;;0.50;0.50;;;23.00;99.90;;;;;;5073293;28;20187;-78
2022/08/10 06:07:56;;;;;;;0.77;0.70;;;23.00;99.90;;;;;;5072309;28;20181;-78
2022/08/10 06:10:22;;;;;;;0.30;0.30;;;23.20;99.90;;;;;;5067044;28;20187;-79
2022/08/10 06:14:59;;;;;;;0.50;0.50;;;23.30;99.90;;;;;;5067862;28;20201;-79
2022/08/10 06:15:37;;;;;;;0.33;0.33;;;23.20;99.90;;;;;;5062491;28;20177;-78
2022/08/10 06:18:04;;;;;;;0.60;0.60;;;23.30;99.90;;;;;;5075887;28;20184;-78
2022/08/10 06:20:31;;;;;;;0.70;0.70;;;23.30;99.90;;;;;;5090608;28;20260;-78
2022/08/10 06:23:00;;;;;;;0.70;0.70;;;23.50;99.90;;;;;;5070692;28;20241;-78
2022/08/10 06:25:29;;;;;;;0.57;0.40;;;23.50;99.90;;;;;;5069131;28;20181;-77
2022/08/10 06:27:56;;;;;;;0.87;0.70;;;23.70;99.90;;;;;;5064748;28;20227;-78
2022/08/10 06:30:23;;;;;;;0.50;0.50;;;23.90;99.90;;;;;;5070437;28;20550;-77
2022/08/10 06:32:51;;;;;;;2.90;0.67;;;23.90;99.90;;;;;;5068243;28;20189;-77
2022/08/10 06:35:17;;;;;;;0.60;0.60;;;24.00;99.90;;;;;;5068870;28;21979;-78
2022/08/10 06:37:44;;;;;;;0.93;0.93;;;24.00;99.90;;;;;;5069510;28;20864;-78
2022/08/10 06:40:11;;;;;;;1.00;0.60;;;23.90;99.90;;;;;;5070428;28;20188;-78
2022/08/10 06:42:41;;;;;;;0.67;0.67;;;24.10;99.90;;;;;;5069156;28;20174;-78
2022/08/10 06:45:11;;;;;;;0.73;0.73;;;24.20;99.90;;;;;;5067969;28;20292;-78
2022/08/10 06:48:02;;;;;;;0.40;0.40;;;24.30;99.90;;;;;;5069784;28;20177;-78
2022/08/10 06:50:38;;;;;;;1.47;0.60;;;24.50;99.90;;;;;;5059677;28;20181;-78
2022/08/10 06:53:11;;;;;;;0.40;0.40;;;24.50;99.90;;;;;;5072274;28;20201;-78
2022/08/10 06:55:41;;;;;;;0.87;0.77;;;24.70;99.90;;;;;;5060594;28;20679;-79
2022/08/10 06:58:07;;;;;;;0.77;0.77;;;24.80;99.90;;;;;;5066028;28;20189;-78
2022/08/10 07:00:36;;;;;;;0.40;0.40;;;24.80;99.90;;;;;;5069609;28;20777;-82
2022/08/10 07:03:14;;;;;;;1.93;0.70;;;24.90;99.90;;;;;;5069878;28;20191;-80
2022/08/10 07:05:46;;;;;;;0.67;0.60;;;24.90;99.90;;;;;;5082310;28;20209;-79
2022/08/10 07:08:13;;;;;;;1.00;0.90;;;25.30;99.90;;;;;;5060806;28;20269;-80
2022/08/10 07:10:40;;;;;;;0.60;0.60;;;25.40;99.90;;;;;;5068902;28;20181;-80
2022/08/10 07:13:06;;;;;;;0.80;0.63;;;25.30;99.90;;;;;;5081410;28;20204;-80
2022/08/10 07:15:33;;;;;;;1.07;1.07;;;25.60;99.90;;;;;;5070144;28;20692;-80
2022/08/10 07:18:00;;;;;;;0.80;0.80;;;25.70;99.90;;;;;;5069205;28;20177;-80
2022/08/10 07:20:26;;;;;;;0.40;0.40;;;25.50;99.90;;;;;;5065721;28;20250;-80
2022/08/10 07:22:53;;;;;;;0.73;0.73;;;25.60;99.90;;;;;;5069590;28;20185;-80
2022/08/10 07:25:24;;;;;;;1.03;0.90;;;25.80;99.90;;;;;;5069155;28;20195;-80
2022/08/10 07:27:52;;;;;;;0.33;0.33;;;25.70;99.90;;;;;;5068999;28;20181;-80
2022/08/10 07:30:18;;;;;;;0.90;0.90;;;25.90;99.90;;;;;;5067868;28;20268;-80
2022/08/10 07:32:47;;;;;;;0.77;0.60;;;26.00;99.90;;;;;;5068984;28;20306;-79
2022/08/10 07:35:15;;;;;;;0.50;0.50;;;26.40;99.90;;;;;;5080667;28;20208;-80
2022/08/10 07:37:42;;;;;;;0.70;0.70;;;25.90;99.90;;;;;;5063167;28;20189;-80
2022/08/10 07:40:09;;;;;;;1.37;0.70;;;26.10;99.90;;;;;;5081486;28;20185;-79
2022/08/10 07:42:36;;;;;;;0.50;0.50;;;26.10;99.90;;;;;;5068984;28;20199;-79
2022/08/10 07:45:03;;;;;;;0.70;0.70;;;26.40;99.90;;;;;;5069606;28;20205;-80
2022/08/10 07:47:40;;;;;;;0.40;0.40;;;26.00;99.90;;;;;;5066030;28;20189;-79
2022/08/10 07:50:15;;;;;;;0.40;0.40;;;26.40;99.90;;;;;;5043616;28;20576;-80
2022/08/10 07:52:42;;;;;;;1.00;1.00;;;26.70;99.90;;;;;;5035144;28;20619;-80
2022/08/10 07:55:13;;;;;;;0.60;0.60;;;26.60;99.90;;;;;;5046789;28;20216;-80
2022/08/10 07:57:41;;;;;;;0.37;0.37;;;26.50;99.90;;;;;;5045840;28;20563;-80
2022/08/10 08:00:09;;;;;;;0.80;0.80;;;26.80;99.90;;;;;;5044934;28;20701;-80
2022/08/10 08:02:40;;;;;;;0.60;0.60;;;26.70;99.90;;;;;;5043670;28;20175;-80
2022/08/10 08:05:08;;;;;;;1.13;0.60;;;26.50;99.90;;;;;;5035783;28;20205;-80
2022/08/10 08:07:37;;;;;;;0.90;0.90;;;26.70;99.90;;;;;;5035738;28;20185;-80
2022/08/10 08:10:03;;;;;;;0.50;0.50;;;26.90;99.90;;;;;;5038581;28;20646;-80
2022/08/10 08:12:31;;;;;;;0.30;0.30;;;27.20;99.90;;;;;;5040719;28;20206;-81
2022/08/10 08:14:58;;;;;;;0.90;0.73;;;27.10;99.90;;;;;;5039522;28;20212;-79
2022/08/10 08:17:25;;;;;;;0.43;0.43;;;26.90;99.90;;;;;;5040927;28;20214;-79
2022/08/10 08:19:52;;;;;;;0.63;0.50;;;27.10;99.90;;;;;;5032255;28;20209;-80
2022/08/10 08:22:19;;;;;;;0.67;0.67;;;26.70;99.90;;;;;;5040341;28;20182;-80
2022/08/10 08:24:46;;;;;;;0.60;0.60;;;26.90;99.90;;;;;;5042230;28;20210;-80
2022/08/10 08:27:15;;;;;;;0.50;0.50;;;27.00;99.90;;;;;;5041078;28;20614;-80
2022/08/10 08:29:43;;;;;;;0.70;0.70;;;26.80;99.90;;;;;;5046751;28;20212;-80
2022/08/10 08:32:11;;;;;;;2.93;0.90;;;27.10;99.90;;;;;;5045148;28;20257;-80
2022/08/10 08:34:39;;;;;;;0.83;0.70;;;27.00;99.90;;;;;;5040559;28;20206;-79
2022/08/10 08:37:09;;;;;;;0.93;0.93;;;26.90;99.90;;;;;;5045530;28;20202;-79
2022/08/10 08:39:35;;;;;;;0.83;0.83;;;26.90;99.90;;;;;;5042830;28;20186;-80
2022/08/10 08:42:28;;;;;;;0.40;0.40;;;27.20;99.90;;;;;;5039305;28;20190;-80
2022/08/10 08:45:05;;;;;;;0.43;0.43;;;27.70;99.90;;;;;;5042430;28;20198;-80
2022/08/10 08:47:54;;;;;;;0.70;0.70;;;27.60;99.90;;;;;;5047326;28;20188;-80
2022/08/10 08:50:46;;;;;;;0.60;0.60;;;27.30;99.90;;;;;;5038711;28;20197;-80
2022/08/10 08:53:23;;;;;;;0.33;0.33;;;27.60;99.90;;;;;;5043817;28;20193;-80
2022/08/10 08:56:01;;;;;;;1.58;1.08;;;27.80;99.90;;;;;;5043991;28;20182;-80
2022/08/10 08:58:48;;;;;;;0.80;0.80;;;27.50;99.90;;;;;;5039767;28;20722;-80
2022/08/10 09:01:46;;;;;;;0.60;0.52;;;27.70;99.90;;;;;;5028048;28;20178;-80
2022/08/10 09:04:30;;;;;;;0.83;0.70;;;27.80;99.90;;;;;;5024463;28;20198;-80
2022/08/10 09:07:27;;;;;;;0.85;0.82;;;27.70;99.90;;;;;;5026434;28;20183;-80
2022/08/10 09:10:00;;;;;;;0.40;0.40;;;27.80;99.90;;;;;;5029036;28;20194;-80
2022/08/10 09:12:39;;;;;;;1.30;1.25;;;28.30;99.90;;;;;;5029687;28;20277;-80
2022/08/10 09:15:25;;;;;;;0.73;0.60;;;27.70;99.90;;;;;;5032976;28;20206;-80
2022/08/10 09:18:19;;;;;;;0.50;0.50;;;27.90;99.90;;;;;;5030825;28;20674;-80
2022/08/10 09:21:12;;;;;;;1.55;0.88;;;27.70;99.90;;;;;;5034321;28;20170;-80
2022/08/10 09:23:47;;;;;;;0.80;0.47;;;27.80;99.90;;;;;;5033736;28;20283;-80
2022/08/10 09:26:21;;;;;;;0.63;0.63;;;28.40;99.90;;;;;;5030828;28;20565;-80
2022/08/10 09:28:53;;;;;;;0.50;0.50;;;28.60;99.90;;;;;;5025695;28;20292;-80
2022/08/10 09:31:23;;;;;;;1.95;1.85;;;28.80;99.90;;;;;;5030729;28;20205;-80
2022/08/10 09:34:16;;;;;;;0.73;0.50;;;28.90;99.90;;;;;;5029344;28;20230;-80
2022/08/10 09:36:58;;;;;;;0.40;0.40;;;29.10;99.90;;;;;;5024174;28;20185;-80
2022/08/10 09:39:34;;;;;;;0.65;0.65;;;28.70;99.50;;;;;;5032144;28;20660;-80
2022/08/10 09:42:37;;;;;;;0.52;0.52;;;28.80;99.90;;;;;;5030987;28;20194;-80
2022/08/10 09:45:47;;;;;;;0.75;0.63;;;28.40;99.70;;;;;;5035032;28;20905;-79
2022/08/10 09:48:30;;;;;;;0.45;0.45;;;28.30;99.90;;;;;;5006179;28;20215;-79
2022/08/10 09:51:17;;;;;;;0.35;0.35;;;28.80;99.90;;;;;;5029865;28;20240;-79
2022/08/10 09:54:06;;;;;;;0.63;0.63;;;28.70;99.90;;;;;;5024215;28;20565;-79
2022/08/10 09:57:00;;;;;;;0.60;0.60;;;28.90;99.90;;;;;;5028206;28;20182;-79
2022/08/10 09:59:33;;;;;;;0.60;0.55;;;28.60;99.90;;;;;;5025565;28;20182;-80
2022/08/10 10:02:14;;;;;;;0.55;0.55;;;28.80;99.90;;;;;;5036180;28;20261;-80
2022/08/10 10:04:57;;;;;;;0.63;0.63;;;28.80;99.70;;;;;;5022329;28;20217;-79
2022/08/10 10:07:26;;;;;;;0.65;0.63;;;28.30;99.90;;;;;;5025335;28;20232;-80
2022/08/10 10:10:13;;;;;;;0.82;0.82;;;28.60;99.60;;;;;;5028303;28;20689;-81
2022/08/10 10:13:02;;;;;;;0.63;0.63;;;28.70;99.90;;;;;;5020426;28;20193;-80
2022/08/10 10:15:51;;;;;;;0.70;0.70;;;28.60;99.60;;;;;;5027795;28;20529;-80
2022/08/10 10:18:54;;;;;;;0.70;0.70;;;28.80;99.70;;;;;;5029935;28;20191;-80
2022/08/10 10:21:32;;;;;;;0.38;0.38;;;28.70;99.40;;;;;;5031156;28;20182;-80
2022/08/10 10:24:09;;;;;;;0.70;0.70;;;29.30;98.90;;;;;;5029024;28;20216;-81
2022/08/10 10:26:50;;;;;;;0.70;0.70;;;29.10;99.30;;;;;;5031687;28;20182;-80
2022/08/10 10:29:29;;;;;;;0.98;0.95;;;29.20;98.90;;;;;;5025754;28;20203;-80
2022/08/10 10:32:13;;;;;;;0.60;0.60;;;29.20;98.90;;;;;;5024505;28;20185;-81
2022/08/10 10:35:05;;;;;;;1.45;0.90;;;28.90;98.60;;;;;;5027804;28;20710;-80
2022/08/10 10:37:32;;;;;;;0.50;0.50;;;28.80;99.20;;;;;;5023548;28;20261;-80
2022/08/10 10:40:00;;;;;;;1.15;1.00;;;28.80;98.50;;;;;;5027553;28;20198;-80
2022/08/10 10:42:44;;;;;;;0.52;0.52;;;29.00;97.80;;;;;;5024679;28;20191;-80
2022/08/10 10:45:15;;;;;;;0.40;0.40;;;29.10;97.80;;;;;;5030380;28;20592;-80
2022/08/10 10:48:15;;;;;;;0.65;0.65;;;28.90;97.80;;;;;;5024484;28;21859;-80
2022/08/10 10:51:09;;;;;;;0.55;0.52;;;29.20;98.60;;;;;;5038972;28;20270;-80
2022/08/10 10:53:58;;;;;;;0.63;0.63;;;28.90;97.90;;;;;;5027387;28;20206;-80
2022/08/10 10:56:35;;;;;;;1.05;0.82;;;28.80;98.20;;;;;;5022244;28;20210;-80
2022/08/10 10:59:22;;;;;;;0.70;0.68;;;28.70;97.90;;;;;;5028674;28;20188;-80
2022/08/10 11:02:21;;;;;;;0.80;0.80;;;28.80;97.00;;;;;;5037946;28;20201;-81
2022/08/10 11:05:17;;;;;;;0.55;0.55;;;28.70;97.10;;;;;;5022765;28;20239;-80
2022/08/10 11:07:58;;;;;;;1.50;0.70;;;28.80;97.30;;;;;;5025229;28;20174;-80
2022/08/10 11:10:51;;;;;;;0.85;0.82;;;29.20;97.90;;;;;;5028957;28;20726;-80
2022/08/10 11:13:20;;;;;;;0.70;0.70;;;28.90;97.30;;;;;;5030735;28;20198;-80
2022/08/10 11:16:15;;;;;;;0.60;0.60;;;29.00;97.60;;;;;;5025454;28;20217;-80
2022/08/10 11:18:54;;;;;;;0.80;0.80;;;29.20;97.70;;;;;;5025609;28;20195;-80
2022/08/10 11:21:23;;;;;;;0.80;0.80;;;29.20;97.20;;;;;;5030479;28;20614;-80
2022/08/10 11:24:36;;;;;;;0.70;0.70;;;29.50;97.50;;;;;;5030942;28;20580;-80
2022/08/10 11:27:12;;;;;;;0.70;0.70;;;29.80;97.00;;;;;;4994024;28;20991;-80
2022/08/10 11:29:40;;;;;;;0.60;0.60;;;29.50;96.90;;;;;;5029821;28;20221;-80
2022/08/10 11:32:15;;;;;;;0.63;0.63;;;29.50;97.40;;;;;;5031127;28;20186;-80
2022/08/10 11:34:57;;;;;;;0.60;0.60;;;29.60;96.60;;;;;;5031108;28;20228;-80
2022/08/10 11:37:58;;;;;;;0.98;0.88;;;29.80;97.00;;;;;;5031876;28;20195;-81
2022/08/10 11:40:30;;;;;;;0.60;0.57;;;29.80;97.20;;;;;;5027223;28;20205;-80
2022/08/10 11:43:20;;;;;;;0.80;0.80;;;29.90;97.00;;;;;;5026962;28;20185;-80
2022/08/10 11:45:51;;;;;;;0.50;0.50;;;29.80;97.20;;;;;;5034650;28;20233;-80
2022/08/10 11:48:39;;;;;;;0.68;0.68;;;30.10;97.20;;;;;;5032398;28;20260;-80
2022/08/10 11:51:15;;;;;;;0.80;0.80;;;30.00;97.60;;;;;;5030555;28;20182;-80
2022/08/10 11:54:00;;;;;;;0.70;0.70;;;29.90;97.60;;;;;;5027652;28;20539;-80
2022/08/10 11:56:46;;;;;;;1.38;1.38;;;28.90;97.40;;;;;;5034558;28;20770;-80
2022/08/10 12:02:03;;;;;;;0.52;0.52;;;29.30;97.50;;;;;;5028139;28;20220;-81
2022/08/10 12:04:30;;;;;;;0.75;0.70;;;29.50;97.00;;;;;;5027061;28;20206;-80
2022/08/10 12:06:57;;;;;;;0.52;0.52;;;28.90;97.30;;;;;;5027316;28;20213;-80
2022/08/10 12:09:25;;;;;;;1.02;0.75;;;28.60;97.50;;;;;;5031332;28;20206;-81
2022/08/10 12:11:52;;;;;;;0.80;0.80;;;28.80;97.30;;;;;;5025397;28;20264;-80
2022/08/10 12:14:25;;;;;;;0.68;0.65;;;29.10;96.90;;;;;;5029557;28;20225;-80
2022/08/10 12:16:59;;;;;;;0.40;0.40;;;29.70;96.70;;;;;;5027568;28;20277;-81
2022/08/10 12:19:49;;;;;;;0.60;0.60;;;29.70;96.40;;;;;;5034336;28;20198;-81
2022/08/10 12:22:22;;;;;;;0.40;0.40;;;30.20;96.80;;;;;;5030594;28;20192;-81
2022/08/10 12:25:04;;;;;;;0.52;0.52;;;30.70;96.40;;;;;;5030661;28;20569;-81
2022/08/10 12:27:46;;;;;;;0.50;0.50;;;31.20;95.80;;;;;;5027816;28;20170;-81
2022/08/10 12:30:16;;;;;;;0.57;0.57;;;30.90;95.60;;;;;;5027286;28;20759;-80
2022/08/10 12:33:02;;;;;;;0.40;0.40;;;31.20;95.00;;;;;;5027293;28;20187;-80
2022/08/10 12:35:49;;;;;;;1.00;1.00;;;30.70;95.20;;;;;;5023598;28;20178;-80
2022/08/10 12:38:33;;;;;;;1.02;0.93;;;30.40;94.80;;;;;;5027603;28;20190;-80
2022/08/10 12:41:03;;;;;;;0.52;0.52;;;30.40;94.90;;;;;;5036378;28;20179;-80
2022/08/10 12:44:05;;;;;;;1.40;0.68;;;30.40;95.20;;;;;;5034590;28;20221;-80
2022/08/10 12:47:01;;;;;;;0.60;0.60;;;30.00;95.10;;;;;;5023305;28;20193;-80
2022/08/10 12:49:36;;;;;;;0.68;0.68;;;30.30;95.40;;;;;;5031699;28;20304;-80
2022/08/10 12:52:05;;;;;;;0.50;0.50;;;30.50;94.90;;;;;;5031322;28;20194;-81
2022/08/10 12:54:35;;;;;;;0.75;0.75;;;30.50;95.30;;;;;;5033273;28;20209;-81
2022/08/10 12:57:07;;;;;;;0.63;0.63;;;30.20;94.70;;;;;;5030186;28;20647;-80
2022/08/10 12:59:36;;;;;;;0.57;0.57;;;30.70;95.10;;;;;;5034686;28;20213;-80
2022/08/10 13:02:03;;;;;;;0.50;0.50;;;31.30;94.90;;;;;;5031075;28;20243;-80
2022/08/10 13:04:34;;;;;;;0.75;0.73;;;31.40;94.80;;;;;;5027682;28;20264;-80
2022/08/10 13:07:02;;;;;;;0.30;0.30;;;31.20;94.70;;;;;;5034165;28;20195;-80
2022/08/10 13:09:30;;;;;;;0.90;0.90;;;31.40;94.90;;;;;;5032507;28;20296;-81
2022/08/10 13:12:05;;;;;;;0.60;0.60;;;31.00;94.30;;;;;;5034565;28;20646;-80
2022/08/10 13:14:44;;;;;;;1.42;1.42;;;30.90;94.90;;;;;;5036327;28;20211;-80
2022/08/10 13:17:11;;;;;;;0.90;0.90;;;31.20;94.90;;;;;;5034170;28;20232;-80
2022/08/10 13:19:40;;;;;;;0.70;0.70;;;31.20;94.50;;;;;;5037626;28;20177;-80
2022/08/10 13:22:07;;;;;;;0.60;0.60;;;31.00;94.50;;;;;;5036868;28;20186;-80